Lytten, Kentucky
Current Conditions -  °F | °C
As of 9:30 PM on Thursday 20 Nov 2014 (Local Time) from KSYM Reporting Station
Few Clouds Few Clouds  
Wind Chill: 21°   Ceiling: Unl
Heat Index: 27°   Visibility: 10mi
Dew Point: 16°   Wind: 5mph
Humidity: 64%   Direction: 300°WNW
Pressure: 30.25"   Gusts: NA
Location:  38.1397°N, 83.158°W
Report Text: KSYM 210230Z AUTO 30004KT 10SM FEW050 M03/M09 A3025 RMK AO2
Loading
Personal Weather Stations






























Interactive Weather Map New forecast layout! Learn more

10-Day Weather Forecast

Advertisements
Track Severe Weather on mobile